Anzoras — EAZC — position and weather

sailwx.info

Track history (hours):
 
Tides and Currents Weather Stations Pressure Air Temp Water Temp Dewpoint Dewpoint Depression Visibility Wind Speed Wind Dir Waves Ship Positions

Anzoras

Last reported at 2016-Feb-04 03:33 UTC. Time now 2016-Feb-08 02:06 UTC.
Position N 36°42' E 014°29'.

Length 100 m; draft 4.3 m.

Type: Cargo ship. MMSI: 224376000.

Date/timePositionNaut miles runAvg speedWind from/ knotsBaromVisibWave heightAir tempDewpointWater temp
2016-Feb-04 03:33N 36°42' E 014°29'1110.9
2016-Feb-04 02:33N 36°47' E 014°16'1110.6
2016-Feb-04 01:33N 36°51' E 014°04'1010.5
2016-Feb-04 00:33N 36°55' E 013°52'  
2016-Feb-01 17:33N 36°52' E 001°56'1110.7
2016-Feb-01 16:32N 36°51' E 001°42'1111.0
2016-Feb-01 15:33N 36°49' E 001°29'13111.4
2016-Feb-01 04:03N 36°29' W 001°13'3011.9
2016-Feb-01 01:33N 36°25' W 001°50'1212.2
2016-Feb-01 00:33N 36°23' W 002°05'2411.4
2016-Jan-31 22:30N 36°19' W 002°33'1010.6
2016-Jan-31 21:32N 36°17' W 002°46'12511.4
2016-Jan-31 10:33N 36°04' W 005°20'6 0.5
2016-Jan-30 23:31N 36°08' W 005°24'8 8.1
2016-Jan-30 22:33N 36°00' W 005°24'14811.3
2016-Jan-30 09:28N 36°23' W 008°26'1110.9
2016-Jan-30 08:28N 36°26' W 008°39'1111.1
2016-Jan-30 07:28N 36°29' W 008°52'1010.4
2016-Jan-30 06:31N 36°32' W 009°04'1110.6
2016-Jan-30 05:31N 36°35' W 009°17'1110.1
2016-Jan-30 04:28N 36°43' W 009°26'910.0
2016-Jan-30 03:31N 36°51' W 009°32'1111.0
2016-Jan-30 02:31N 37°01' W 009°36'1010.6
2016-Jan-30 01:34N 37°11' W 009°38'1111.4
2016-Jan-30 00:33N 37°22' W 009°42'1110.4
2016-Jan-29 23:30N 37°33' W 009°44'1111.3
2016-Jan-29 22:31N 37°44' W 009°47'1010.8
2016-Jan-29 21:33N 37°54' W 009°50'1111.4
2016-Jan-29 20:34N 38°05' W 009°54'1111.2
2016-Jan-29 19:33N 38°16' W 009°57'1010.1
2016-Jan-29 18:32N 38°26' W 010°00'1111.2
2016-Jan-29 17:34N 38°36' W 010°04'1111.0
2016-Jan-29 16:33N 38°47' W 010°05'1110.5
2016-Jan-29 15:34N 38°58' W 010°05'1110.7
2016-Jan-29 14:33N 39°09' W 010°06'1211.5
2016-Jan-29 13:28N 39°21' W 010°05'1011.1
2016-Jan-29 12:32N 39°31' W 010°05'1111.3
2016-Jan-29 11:32N 39°43' W 010°05'1111.0
2016-Jan-29 10:31N 39°54' W 010°05'1110.9
2016-Jan-29 09:28N 40°05' W 010°05'1011.1
2016-Jan-29 08:33N 40°16' W 010°05'1110.9
2016-Jan-29 07:31N 40°27' W 010°05'1110.8
2016-Jan-29 06:28N 40°38' W 010°05'1111.4
2016-Jan-29 05:31N 40°49' W 010°05'1211.5
2016-Jan-29 04:31N 41°01' W 010°05'1210.9
2016-Jan-29 03:28N 41°12' W 010°05'1010.3
2016-Jan-29 02:31N 41°22' W 010°05'1211.0
2016-Jan-29 01:25N 41°34' W 010°05'1010.5
2016-Jan-29 00:28N 41°44' W 010°05'1110.8
2016-Jan-28 23:28N 41°55' W 010°05'217 7.2
2016-Jan-27 17:29N 43°34' W 005°42'0 0.0
2016-Jan-27 16:11N 43°34' W 005°42'0 0.0
2016-Jan-27 09:29N 43°34' W 005°42'0 0.0
2016-Jan-27 08:29N 43°34' W 005°42'0 0.0
2016-Jan-27 06:11N 43°34' W 005°42'0 0.0
2016-Jan-27 03:11N 43°34' W 005°42'0 0.0
2016-Jan-27 02:17N 43°34' W 005°42'0 0.0
2016-Jan-27 01:29N 43°34' W 005°42'0 0.0
2016-Jan-26 22:17N 43°34' W 005°42'0 0.0
2016-Jan-26 21:29N 43°34' W 005°42'0 0.0
2016-Jan-26 19:11N 43°34' W 005°42'  
Track history (hours):
 
Tides and Currents Weather Stations Pressure Air Temp Water Temp Dewpoint Dewpoint Depression Visibility Wind Speed Wind Dir Waves Ship Positions

Anzoras

Last reported at 2016-Feb-04 03:33 UTC. Time now 2016-Feb-08 02:06 UTC.
Position N 36°42' E 014°29'.

Length 100 m; draft 4.3 m.

Type: Cargo ship. MMSI: 224376000.

Date/timePositionNaut miles runAvg speedWind from/ knotsBaromVisibWave heightAir tempDewpointWater temp
2016-Feb-04 03:33N 36°42' E 014°29'1110.9
2016-Feb-04 02:33N 36°47' E 014°16'1110.6
2016-Feb-04 01:33N 36°51' E 014°04'1010.5
2016-Feb-04 00:33N 36°55' E 013°52'  
2016-Feb-01 17:33N 36°52' E 001°56'1110.7
2016-Feb-01 16:32N 36°51' E 001°42'1111.0
2016-Feb-01 15:33N 36°49' E 001°29'13111.4
2016-Feb-01 04:03N 36°29' W 001°13'3011.9
2016-Feb-01 01:33N 36°25' W 001°50'1212.2
2016-Feb-01 00:33N 36°23' W 002°05'2411.4
2016-Jan-31 22:30N 36°19' W 002°33'1010.6
2016-Jan-31 21:32N 36°17' W 002°46'12511.4
2016-Jan-31 10:33N 36°04' W 005°20'6 0.5
2016-Jan-30 23:31N 36°08' W 005°24'8 8.1
2016-Jan-30 22:33N 36°00' W 005°24'14811.3
2016-Jan-30 09:28N 36°23' W 008°26'1110.9
2016-Jan-30 08:28N 36°26' W 008°39'1111.1
2016-Jan-30 07:28N 36°29' W 008°52'1010.4
2016-Jan-30 06:31N 36°32' W 009°04'1110.6
2016-Jan-30 05:31N 36°35' W 009°17'1110.1
2016-Jan-30 04:28N 36°43' W 009°26'910.0
2016-Jan-30 03:31N 36°51' W 009°32'1111.0
2016-Jan-30 02:31N 37°01' W 009°36'1010.6
2016-Jan-30 01:34N 37°11' W 009°38'1111.4
2016-Jan-30 00:33N 37°22' W 009°42'1110.4
2016-Jan-29 23:30N 37°33' W 009°44'1111.3
2016-Jan-29 22:31N 37°44' W 009°47'1010.8
2016-Jan-29 21:33N 37°54' W 009°50'1111.4
2016-Jan-29 20:34N 38°05' W 009°54'1111.2
2016-Jan-29 19:33N 38°16' W 009°57'1010.1
2016-Jan-29 18:32N 38°26' W 010°00'1111.2
2016-Jan-29 17:34N 38°36' W 010°04'1111.0
2016-Jan-29 16:33N 38°47' W 010°05'1110.5
2016-Jan-29 15:34N 38°58' W 010°05'1110.7
2016-Jan-29 14:33N 39°09' W 010°06'1211.5
2016-Jan-29 13:28N 39°21' W 010°05'1011.1
2016-Jan-29 12:32N 39°31' W 010°05'1111.3
2016-Jan-29 11:32N 39°43' W 010°05'1111.0
2016-Jan-29 10:31N 39°54' W 010°05'1110.9
2016-Jan-29 09:28N 40°05' W 010°05'1011.1
2016-Jan-29 08:33N 40°16' W 010°05'1110.9
2016-Jan-29 07:31N 40°27' W 010°05'1110.8
2016-Jan-29 06:28N 40°38' W 010°05'1111.4
2016-Jan-29 05:31N 40°49' W 010°05'1211.5
2016-Jan-29 04:31N 41°01' W 010°05'1210.9
2016-Jan-29 03:28N 41°12' W 010°05'1010.3
2016-Jan-29 02:31N 41°22' W 010°05'1211.0
2016-Jan-29 01:25N 41°34' W 010°05'1010.5
2016-Jan-29 00:28N 41°44' W 010°05'1110.8
2016-Jan-28 23:28N 41°55' W 010°05'217 7.2
2016-Jan-27 17:29N 43°34' W 005°42'0 0.0
2016-Jan-27 16:11N 43°34' W 005°42'0 0.0
2016-Jan-27 09:29N 43°34' W 005°42'0 0.0
2016-Jan-27 08:29N 43°34' W 005°42'0 0.0
2016-Jan-27 06:11N 43°34' W 005°42'0 0.0
2016-Jan-27 03:11N 43°34' W 005°42'0 0.0
2016-Jan-27 02:17N 43°34' W 005°42'0 0.0
2016-Jan-27 01:29N 43°34' W 005°42'0 0.0
2016-Jan-26 22:17N 43°34' W 005°42'0 0.0
2016-Jan-26 21:29N 43°34' W 005°42'0 0.0
2016-Jan-26 19:11N 43°34' W 005°42'  

Dump ship's entire track history